createdAt,value
2017-10-04T00:03:12.494Z,0
2017-10-04T00:13:12.392Z,0
2017-10-04T00:23:12.417Z,0
2017-10-04T00:33:12.399Z,0
2017-10-04T00:43:12.439Z,0
2017-10-04T00:53:12.441Z,0
2017-10-04T01:03:12.517Z,0
2017-10-04T01:13:12.446Z,0
2017-10-04T01:23:12.415Z,0
2017-10-04T01:33:12.528Z,0
2017-10-04T01:43:12.441Z,0
2017-10-04T01:53:12.495Z,0
2017-10-04T02:03:12.472Z,0
2017-10-04T02:13:12.521Z,0
2017-10-04T02:23:12.498Z,0
2017-10-04T02:33:12.552Z,0
2017-10-04T02:43:12.490Z,0
2017-10-04T02:53:12.564Z,0
2017-10-04T03:03:12.528Z,0
2017-10-04T03:13:12.589Z,0
2017-10-04T03:23:12.585Z,0
2017-10-04T03:33:12.668Z,0
2017-10-04T03:43:12.583Z,0
2017-10-04T03:53:12.641Z,0
2017-10-04T04:03:12.616Z,0
2017-10-04T04:13:12.689Z,0
2017-10-04T04:23:12.664Z,0
2017-10-04T04:33:12.594Z,0
2017-10-04T04:43:12.665Z,0
2017-10-04T04:53:12.591Z,0
2017-10-04T05:03:12.696Z,0
2017-10-04T05:13:12.631Z,8
2017-10-04T05:23:12.714Z,44
2017-10-04T05:33:12.722Z,120
2017-10-04T05:43:12.728Z,356
2017-10-04T05:53:12.671Z,772
2017-10-04T06:03:12.750Z,1532
2017-10-04T06:13:12.705Z,2232
2017-10-04T06:23:12.798Z,2952
2017-10-04T06:33:12.756Z,3248
2017-10-04T06:43:12.658Z,3836
2017-10-04T06:53:12.760Z,5364
2017-10-04T07:04:22.102Z,5512
2017-10-04T07:13:12.925Z,5208
2017-10-04T07:23:12.792Z,6388
2017-10-04T07:33:12.797Z,6060
2017-10-04T07:43:12.823Z,5492
2017-10-04T07:53:12.883Z,6612
2017-10-04T08:03:12.817Z,8668
2017-10-04T08:13:12.879Z,7536
2017-10-04T08:23:13.475Z,7316
2017-10-04T08:33:12.855Z,7972
2017-10-04T08:43:12.813Z,11272
2017-10-04T08:53:12.884Z,16204
2017-10-04T09:03:13.031Z,14224
2017-10-04T09:13:12.937Z,6704
2017-10-04T09:23:12.861Z,5980
2017-10-04T09:33:12.949Z,8212
2017-10-04T09:43:12.828Z,9544
2017-10-04T09:53:12.896Z,11120
2017-10-04T10:03:12.878Z,9660
2017-10-04T10:13:12.889Z,9616
2017-10-04T10:23:12.898Z,9340
2017-10-04T10:33:12.904Z,11272
2017-10-04T10:43:12.890Z,10360
2017-10-04T10:53:12.897Z,10284
2017-10-04T11:03:12.931Z,8880
2017-10-04T11:13:12.972Z,12644
2017-10-04T11:23:12.965Z,13732
2017-10-04T11:33:12.918Z,13700
2017-10-04T11:43:12.969Z,10652
2017-10-04T11:53:12.942Z,7756
2017-10-04T12:03:13.046Z,6900
2017-10-04T12:13:12.974Z,8032
2017-10-04T12:23:12.983Z,11492
2017-10-04T12:33:12.964Z,6732
2017-10-04T12:43:12.932Z,9800
2017-10-04T12:53:13.003Z,9620
2017-10-04T13:03:12.957Z,8432
2017-10-04T13:13:13.019Z,8468
2017-10-04T13:23:13.079Z,7448
2017-10-04T13:33:13.095Z,4812
2017-10-04T13:43:12.955Z,4436
2017-10-04T13:53:13.051Z,3584
2017-10-04T14:03:13.014Z,3672
2017-10-04T14:13:13.079Z,2832
2017-10-04T14:23:13.048Z,5028
2017-10-04T14:33:13.057Z,2588
2017-10-04T14:43:13.131Z,3076
2017-10-04T14:53:13.051Z,2944
2017-10-04T15:03:13.107Z,1444
2017-10-04T15:13:13.083Z,3128
2017-10-04T15:23:12.967Z,2724
2017-10-04T15:33:13.072Z,2536
2017-10-04T15:43:12.983Z,2424
2017-10-04T15:53:12.960Z,1580
2017-10-04T16:03:12.969Z,1532
2017-10-04T16:13:12.999Z,1048
2017-10-04T16:23:13.006Z,604
2017-10-04T16:33:12.952Z,284
2017-10-04T16:43:12.961Z,240
2017-10-04T16:53:12.960Z,144
2017-10-04T17:03:13.007Z,52
2017-10-04T17:13:12.979Z,16
2017-10-04T17:23:15.074Z,0
2017-10-04T17:33:12.996Z,0
2017-10-04T17:43:13.002Z,0
2017-10-04T17:53:13.029Z,4
2017-10-04T18:03:12.963Z,0
2017-10-04T18:13:13.021Z,0
2017-10-04T18:23:12.942Z,0
2017-10-04T18:33:13.006Z,0
2017-10-04T18:43:13.063Z,0
2017-10-04T18:53:12.979Z,0
2017-10-04T19:03:13.085Z,0
2017-10-04T19:13:12.971Z,0
2017-10-04T19:23:12.995Z,0
2017-10-04T19:33:12.948Z,0
2017-10-04T19:43:13.051Z,0
2017-10-04T19:53:12.996Z,0
2017-10-04T20:03:12.997Z,0
2017-10-04T20:13:13.107Z,0
2017-10-04T20:23:13.034Z,0
2017-10-04T20:33:13.481Z,0
2017-10-04T20:43:13.072Z,0
2017-10-04T20:53:13.039Z,0
2017-10-04T21:03:13.082Z,0
2017-10-04T21:13:13.034Z,0
2017-10-04T21:23:13.061Z,0
2017-10-04T21:33:13.080Z,0
2017-10-04T21:43:12.951Z,0
2017-10-04T21:53:13.079Z,0
2017-10-04T22:03:13.114Z,0
2017-10-04T22:13:13.024Z,0
2017-10-04T22:23:13.094Z,0
2017-10-04T22:33:13.036Z,0
2017-10-04T22:43:13.037Z,0
2017-10-04T22:53:13.101Z,0
2017-10-04T23:03:13.242Z,0
2017-10-04T23:13:13.254Z,0
2017-10-04T23:23:13.022Z,0
2017-10-04T23:33:13.235Z,0
2017-10-04T23:43:13.059Z,0
2017-10-04T23:53:12.996Z,0
